Unlu-5 — TCON5 — position and weather

sailwx.info

Track history (hours):
 
Tides and Currents Weather Stations Pressure Air Temp Water Temp Dewpoint Dewpoint Depression Visibility Wind Speed Wind Dir Waves Ship Positions

Unlu-5

Last reported at 2014-Nov-11 01:20 UTC. Time now 2014-Nov-24 16:16 UTC.
Position N 37°36' E 023°41'.
Warning: this ship's position is 13 days out of date.

Length 99 m; draft 6 m.

Type: Cargo ship. MMSI: 271000854.

Date/timePositionNaut miles runAvg speedWind from/ knotsBaromVisibWave heightAir tempDewpointWater temp
2014-Nov-11 01:20N 37°36' E 023°41'6 7.8
2014-Nov-11 00:33N 37°42' E 023°41'8 8.3
2014-Nov-10 23:33N 37°49' E 023°36'5 3.9
2014-Nov-10 22:15N 37°54' E 023°33'0 0.0
2014-Nov-10 21:33N 37°54' E 023°33'0 0.0
2014-Nov-10 20:33N 37°54' E 023°33'0 0.1
2014-Nov-10 19:33N 37°54' E 023°33'0 0.0
2014-Nov-10 18:33N 37°54' E 023°33'0 0.4
2014-Nov-10 17:33N 37°54' E 023°34'8 7.5
2014-Nov-10 16:34N 37°49' E 023°40'8 8.0
2014-Nov-10 15:33N 37°42' E 023°45'9 7.8
2014-Nov-10 14:24N 37°37' E 023°55'7 8.3
2014-Nov-10 13:33N 37°37' E 024°04'18 8.4
2014-Nov-10 11:25N 37°48' E 024°22'9 8.4
2014-Nov-10 10:22N 37°54' E 024°30'25 8.7
2014-Nov-10 07:30N 38°17' E 024°40'136 8.5
2014-Nov-09 15:32N 40°33' E 024°25'7 7.6
2014-Nov-09 14:34N 40°40' E 024°24'8 7.8
2014-Nov-09 13:34N 40°48' E 024°26'8 8.2
2014-Nov-09 12:33N 40°56' E 024°29'1 0.8
2014-Nov-09 11:13N 40°57' E 024°29'0 0.0
2014-Nov-09 10:25N 40°57' E 024°29'0 0.0
2014-Nov-09 09:25N 40°57' E 024°29'0 0.0
2014-Nov-09 08:31N 40°57' E 024°29'0 0.0
2014-Nov-09 07:10N 40°57' E 024°29'0 0.0
2014-Nov-09 06:16N 40°57' E 024°29'0 0.0
2014-Nov-09 05:25N 40°57' E 024°29'0 0.0
2014-Nov-09 03:31N 40°57' E 024°29'0 0.0
2014-Nov-09 02:31N 40°57' E 024°29'0 0.0
2014-Nov-09 01:31N 40°57' E 024°29'0 0.0
2014-Nov-09 00:16N 40°57' E 024°29'0 0.0
2014-Nov-08 23:22N 40°57' E 024°29'0 0.0
2014-Nov-08 22:28N 40°57' E 024°29'0 0.0
2014-Nov-08 21:28N 40°57' E 024°29'0 0.0
2014-Nov-08 20:28N 40°57' E 024°29'0 0.0
2014-Nov-08 19:28N 40°57' E 024°29'0 0.0
2014-Nov-08 18:31N 40°57' E 024°29'0 0.0
2014-Nov-08 17:22N 40°57' E 024°29'0 0.0
2014-Nov-08 16:28N 40°57' E 024°29'0 0.0
2014-Nov-08 15:28N 40°57' E 024°29'0 0.0
2014-Nov-08 14:31N 40°57' E 024°29'0 0.0
2014-Nov-08 13:28N 40°57' E 024°29'0 0.0
2014-Nov-08 12:28N 40°57' E 024°29'0 0.0
2014-Nov-08 11:28N 40°57' E 024°29'0 0.0
2014-Nov-08 10:28N 40°57' E 024°29'0 0.0
2014-Nov-08 09:28N 40°57' E 024°29'0 0.0
2014-Nov-08 08:28N 40°57' E 024°29'0 0.0
2014-Nov-08 07:28N 40°57' E 024°29'0 0.0
2014-Nov-08 06:28N 40°57' E 024°29'0 0.0
2014-Nov-08 05:28N 40°57' E 024°29'0 0.0
2014-Nov-08 04:28N 40°57' E 024°29'0 0.0
2014-Nov-08 03:28N 40°57' E 024°29'0 0.0
2014-Nov-08 02:22N 40°57' E 024°29'0 0.0
2014-Nov-08 01:28N 40°57' E 024°29'0 0.0
2014-Nov-08 00:19N 40°57' E 024°29'0 0.0
2014-Nov-07 23:31N 40°57' E 024°29'0 0.0
2014-Nov-07 22:28N 40°57' E 024°29'0 0.0
2014-Nov-07 21:31N 40°57' E 024°29'0 0.0
2014-Nov-07 20:31N 40°57' E 024°29'0 0.0
2014-Nov-07 19:31N 40°57' E 024°29'0 0.0
2014-Nov-07 18:22N 40°57' E 024°29'0 0.0
2014-Nov-07 17:31N 40°57' E 024°29'0 0.0
2014-Nov-07 16:28N 40°57' E 024°29'0 0.0
2014-Nov-07 15:31N 40°57' E 024°29'0 0.0
2014-Nov-07 14:31N 40°57' E 024°29'0 0.0
2014-Nov-07 13:31N 40°57' E 024°29'0 0.0
2014-Nov-07 12:33N 40°57' E 024°29'1 1.0
2014-Nov-07 11:32N 40°56' E 024°29'0 0.0
2014-Nov-07 10:32N 40°56' E 024°29'0 0.0
2014-Nov-07 09:32N 40°56' E 024°29'0 0.0
2014-Nov-07 08:32N 40°56' E 024°29'0 0.0
2014-Nov-07 07:32N 40°56' E 024°29'0 0.0
2014-Nov-07 06:32N 40°56' E 024°29'0 0.1
2014-Nov-07 05:32N 40°56' E 024°29'0 0.1
2014-Nov-07 04:32N 40°56' E 024°29'0 0.0
2014-Nov-07 03:32N 40°56' E 024°29'0 0.0
2014-Nov-07 02:32N 40°56' E 024°29'0 0.0
2014-Nov-07 01:32N 40°56' E 024°29'0 0.0
2014-Nov-07 00:32N 40°56' E 024°29'0 0.0
2014-Nov-06 23:32N 40°56' E 024°29'0 0.0
2014-Nov-06 22:32N 40°56' E 024°29'0 0.0
2014-Nov-06 21:32N 40°56' E 024°29'0 0.0
2014-Nov-06 20:32N 40°56' E 024°29'0 0.1
2014-Nov-06 19:32N 40°56' E 024°29'0 0.0
2014-Nov-06 18:32N 40°56' E 024°29'0 0.0
2014-Nov-06 17:32N 40°56' E 024°29'0 0.0
2014-Nov-06 16:32N 40°56' E 024°29'0 0.0
2014-Nov-06 15:32N 40°56' E 024°29'0 0.0
2014-Nov-06 14:32N 40°56' E 024°29'0 0.1
2014-Nov-06 13:32N 40°56' E 024°29'0 0.0
2014-Nov-06 12:32N 40°56' E 024°29'0 0.1
2014-Nov-06 11:32N 40°56' E 024°29'0 0.1
2014-Nov-06 10:33N 40°56' E 024°29'8 8.4
2014-Nov-06 09:33N 40°48' E 024°26'9 9.3
2014-Nov-06 08:34N 40°39' E 024°24'9 9.1
2014-Nov-06 07:31N 40°29' E 024°24'9 9.1
2014-Nov-06 06:33N 40°21' E 024°25'9 8.7
2014-Nov-06 05:33N 40°12' E 024°26'11 8.5
2014-Nov-06 04:17N 40°02' E 024°22'7 9.7
2014-Nov-06 03:33N 39°57' E 024°15'10 9.8
2014-Nov-06 02:33N 39°50' E 024°06'  
Track history (hours):
 
Tides and Currents Weather Stations Pressure Air Temp Water Temp Dewpoint Dewpoint Depression Visibility Wind Speed Wind Dir Waves Ship Positions

Unlu-5

Last reported at 2014-Nov-11 01:20 UTC. Time now 2014-Nov-24 16:16 UTC.
Position N 37°36' E 023°41'.
Warning: this ship's position is 13 days out of date.

Length 99 m; draft 6 m.

Type: Cargo ship. MMSI: 271000854.

Date/timePositionNaut miles runAvg speedWind from/ knotsBaromVisibWave heightAir tempDewpointWater temp
2014-Nov-11 01:20N 37°36' E 023°41'6 7.8
2014-Nov-11 00:33N 37°42' E 023°41'8 8.3
2014-Nov-10 23:33N 37°49' E 023°36'5 3.9
2014-Nov-10 22:15N 37°54' E 023°33'0 0.0
2014-Nov-10 21:33N 37°54' E 023°33'0 0.0
2014-Nov-10 20:33N 37°54' E 023°33'0 0.1
2014-Nov-10 19:33N 37°54' E 023°33'0 0.0
2014-Nov-10 18:33N 37°54' E 023°33'0 0.4
2014-Nov-10 17:33N 37°54' E 023°34'8 7.5
2014-Nov-10 16:34N 37°49' E 023°40'8 8.0
2014-Nov-10 15:33N 37°42' E 023°45'9 7.8
2014-Nov-10 14:24N 37°37' E 023°55'7 8.3
2014-Nov-10 13:33N 37°37' E 024°04'18 8.4
2014-Nov-10 11:25N 37°48' E 024°22'9 8.4
2014-Nov-10 10:22N 37°54' E 024°30'25 8.7
2014-Nov-10 07:30N 38°17' E 024°40'136 8.5
2014-Nov-09 15:32N 40°33' E 024°25'7 7.6
2014-Nov-09 14:34N 40°40' E 024°24'8 7.8
2014-Nov-09 13:34N 40°48' E 024°26'8 8.2
2014-Nov-09 12:33N 40°56' E 024°29'1 0.8
2014-Nov-09 11:13N 40°57' E 024°29'0 0.0
2014-Nov-09 10:25N 40°57' E 024°29'0 0.0
2014-Nov-09 09:25N 40°57' E 024°29'0 0.0
2014-Nov-09 08:31N 40°57' E 024°29'0 0.0
2014-Nov-09 07:10N 40°57' E 024°29'0 0.0
2014-Nov-09 06:16N 40°57' E 024°29'0 0.0
2014-Nov-09 05:25N 40°57' E 024°29'0 0.0
2014-Nov-09 03:31N 40°57' E 024°29'0 0.0
2014-Nov-09 02:31N 40°57' E 024°29'0 0.0
2014-Nov-09 01:31N 40°57' E 024°29'0 0.0
2014-Nov-09 00:16N 40°57' E 024°29'0 0.0
2014-Nov-08 23:22N 40°57' E 024°29'0 0.0
2014-Nov-08 22:28N 40°57' E 024°29'0 0.0
2014-Nov-08 21:28N 40°57' E 024°29'0 0.0
2014-Nov-08 20:28N 40°57' E 024°29'0 0.0
2014-Nov-08 19:28N 40°57' E 024°29'0 0.0
2014-Nov-08 18:31N 40°57' E 024°29'0 0.0
2014-Nov-08 17:22N 40°57' E 024°29'0 0.0
2014-Nov-08 16:28N 40°57' E 024°29'0 0.0
2014-Nov-08 15:28N 40°57' E 024°29'0 0.0
2014-Nov-08 14:31N 40°57' E 024°29'0 0.0
2014-Nov-08 13:28N 40°57' E 024°29'0 0.0
2014-Nov-08 12:28N 40°57' E 024°29'0 0.0
2014-Nov-08 11:28N 40°57' E 024°29'0 0.0
2014-Nov-08 10:28N 40°57' E 024°29'0 0.0
2014-Nov-08 09:28N 40°57' E 024°29'0 0.0
2014-Nov-08 08:28N 40°57' E 024°29'0 0.0
2014-Nov-08 07:28N 40°57' E 024°29'0 0.0
2014-Nov-08 06:28N 40°57' E 024°29'0 0.0
2014-Nov-08 05:28N 40°57' E 024°29'0 0.0
2014-Nov-08 04:28N 40°57' E 024°29'0 0.0
2014-Nov-08 03:28N 40°57' E 024°29'0 0.0
2014-Nov-08 02:22N 40°57' E 024°29'0 0.0
2014-Nov-08 01:28N 40°57' E 024°29'0 0.0
2014-Nov-08 00:19N 40°57' E 024°29'0 0.0
2014-Nov-07 23:31N 40°57' E 024°29'0 0.0
2014-Nov-07 22:28N 40°57' E 024°29'0 0.0
2014-Nov-07 21:31N 40°57' E 024°29'0 0.0
2014-Nov-07 20:31N 40°57' E 024°29'0 0.0
2014-Nov-07 19:31N 40°57' E 024°29'0 0.0
2014-Nov-07 18:22N 40°57' E 024°29'0 0.0
2014-Nov-07 17:31N 40°57' E 024°29'0 0.0
2014-Nov-07 16:28N 40°57' E 024°29'0 0.0
2014-Nov-07 15:31N 40°57' E 024°29'0 0.0
2014-Nov-07 14:31N 40°57' E 024°29'0 0.0
2014-Nov-07 13:31N 40°57' E 024°29'0 0.0
2014-Nov-07 12:33N 40°57' E 024°29'1 1.0
2014-Nov-07 11:32N 40°56' E 024°29'0 0.0
2014-Nov-07 10:32N 40°56' E 024°29'0 0.0
2014-Nov-07 09:32N 40°56' E 024°29'0 0.0
2014-Nov-07 08:32N 40°56' E 024°29'0 0.0
2014-Nov-07 07:32N 40°56' E 024°29'0 0.0
2014-Nov-07 06:32N 40°56' E 024°29'0 0.1
2014-Nov-07 05:32N 40°56' E 024°29'0 0.1
2014-Nov-07 04:32N 40°56' E 024°29'0 0.0
2014-Nov-07 03:32N 40°56' E 024°29'0 0.0
2014-Nov-07 02:32N 40°56' E 024°29'0 0.0
2014-Nov-07 01:32N 40°56' E 024°29'0 0.0
2014-Nov-07 00:32N 40°56' E 024°29'0 0.0
2014-Nov-06 23:32N 40°56' E 024°29'0 0.0
2014-Nov-06 22:32N 40°56' E 024°29'0 0.0
2014-Nov-06 21:32N 40°56' E 024°29'0 0.0
2014-Nov-06 20:32N 40°56' E 024°29'0 0.1
2014-Nov-06 19:32N 40°56' E 024°29'0 0.0
2014-Nov-06 18:32N 40°56' E 024°29'0 0.0
2014-Nov-06 17:32N 40°56' E 024°29'0 0.0
2014-Nov-06 16:32N 40°56' E 024°29'0 0.0
2014-Nov-06 15:32N 40°56' E 024°29'0 0.0
2014-Nov-06 14:32N 40°56' E 024°29'0 0.1
2014-Nov-06 13:32N 40°56' E 024°29'0 0.0
2014-Nov-06 12:32N 40°56' E 024°29'0 0.1
2014-Nov-06 11:32N 40°56' E 024°29'0 0.1
2014-Nov-06 10:33N 40°56' E 024°29'8 8.4
2014-Nov-06 09:33N 40°48' E 024°26'9 9.3
2014-Nov-06 08:34N 40°39' E 024°24'9 9.1
2014-Nov-06 07:31N 40°29' E 024°24'9 9.1
2014-Nov-06 06:33N 40°21' E 024°25'9 8.7
2014-Nov-06 05:33N 40°12' E 024°26'11 8.5
2014-Nov-06 04:17N 40°02' E 024°22'7 9.7
2014-Nov-06 03:33N 39°57' E 024°15'10 9.8
2014-Nov-06 02:33N 39°50' E 024°06'  

Dump ship's entire track history